createdAt,value
2017-12-23T00:02:34.663Z,70.72
2017-12-23T00:17:36.266Z,70.64
2017-12-23T00:32:34.676Z,70.30
2017-12-23T01:02:34.765Z,69.75
2017-12-23T01:17:36.479Z,69.19
2017-12-23T01:32:36.411Z,69.28
2017-12-23T01:47:35.262Z,69.52
2017-12-23T02:02:35.080Z,69.65
2017-12-23T02:17:34.706Z,70.12
2017-12-23T02:32:34.540Z,69.60
2017-12-23T02:47:34.438Z,69.13
2017-12-23T03:02:34.374Z,68.50
2017-12-23T03:17:36.862Z,68.21
2017-12-23T03:32:34.774Z,68.65
2017-12-23T03:47:35.732Z,68.43
2017-12-23T04:02:34.416Z,68.27
2017-12-23T04:17:37.064Z,68.24
2017-12-23T04:32:34.949Z,68.43
2017-12-23T04:47:34.810Z,68.44
2017-12-23T05:02:34.573Z,68.47
2017-12-23T05:17:35.982Z,69.18
2017-12-23T05:32:36.494Z,69.69
2017-12-23T05:47:37.011Z,69.69
2017-12-23T06:02:36.318Z,69.59
2017-12-23T06:17:34.410Z,69.40
2017-12-23T06:32:35.321Z,68.90
2017-12-23T06:47:35.177Z,68.97
2017-12-23T07:02:36.366Z,69.32
2017-12-23T07:17:35.154Z,69.74
2017-12-23T07:32:34.520Z,70.11
2017-12-23T07:47:36.451Z,70.45
2017-12-23T08:02:40.325Z,71.04
2017-12-23T08:17:34.788Z,71.26
2017-12-23T08:32:36.704Z,70.79
2017-12-23T08:47:34.566Z,69.29
2017-12-23T09:02:35.139Z,64.77
2017-12-23T09:32:34.415Z,52.03
2017-12-23T09:47:37.903Z,47.91
2017-12-23T10:02:34.795Z,47.96
2017-12-23T10:17:34.922Z,49.16
2017-12-23T10:32:38.054Z,49.40
2017-12-23T10:47:35.030Z,49.78
2017-12-23T11:02:35.022Z,50.70
2017-12-23T11:17:36.336Z,52.49
2017-12-23T11:32:35.323Z,53.88
2017-12-23T12:17:34.546Z,59.27
2017-12-23T12:47:35.483Z,59.97
2017-12-23T13:02:35.393Z,59.86
2017-12-23T13:17:34.768Z,59.99
2017-12-23T13:47:34.720Z,61.21
2017-12-23T14:02:34.635Z,62.55
2017-12-23T14:17:34.999Z,64.25
2017-12-23T14:32:34.913Z,65.10
2017-12-23T14:47:36.422Z,66.13
2017-12-23T15:02:34.265Z,66.83
2017-12-23T15:17:35.202Z,67.09
2017-12-23T15:32:37.130Z,67.60
2017-12-23T15:47:35.074Z,68.32
2017-12-23T16:02:34.973Z,88.62
2017-12-23T16:17:34.891Z,67.96
2017-12-23T16:32:34.342Z,68.56
2017-12-23T16:47:34.294Z,69.04
2017-12-23T17:02:38.308Z,69.07
2017-12-23T17:17:34.703Z,69.11
2017-12-23T17:32:36.542Z,69.05
2017-12-23T17:47:34.494Z,68.80
2017-12-23T18:02:51.286Z,68.62
2017-12-23T18:32:34.864Z,68.17
2017-12-23T18:47:36.726Z,68.06
2017-12-23T19:02:34.777Z,67.75
2017-12-23T19:17:35.076Z,67.52
2017-12-23T19:32:37.118Z,67.53
2017-12-23T19:47:35.108Z,67.27
2017-12-23T20:02:34.962Z,67.10
2017-12-23T20:17:37.866Z,67.19
2017-12-23T20:32:34.329Z,67.06
2017-12-23T20:47:35.613Z,67.08
2017-12-23T21:02:35.046Z,67.31
2017-12-23T21:17:36.628Z,67.71
2017-12-23T21:32:38.552Z,67.65
2017-12-23T21:47:36.479Z,67.63
2017-12-23T22:02:35.878Z,67.16
2017-12-23T22:17:34.821Z,66.79
2017-12-23T22:32:35.234Z,66.65
2017-12-23T22:47:35.233Z,66.87
2017-12-23T23:02:34.545Z,66.80
2017-12-23T23:17:35.051Z,66.69
2017-12-23T23:32:36.894Z,67.20
2017-12-23T23:47:34.828Z,67.16
